• Join FlightAware (Why Join?)
  • Login
  • US Flag 
06:36AM EST


 

Airport Tracker/Info


-or-


 

Live Flight TrackerFlight Track Log ✈ EJA941 ✈ 14-Jan-2014 ✈ KSUX - KEGE

Flight Track Log - Related Links

Times and Time Zones

All times are in EST time to prevent confusion due to time zone crossing. See the EJA941 flight status page for this flight to view local times or setup timezone preferences in your user account.

Time Position Orientation Groundspeed Altitude Reporting Facility
EST Latitude Longitude Course Direction KTS MPH feet Rate Location/Type
09:36AM 42.4097 -96.4269 270° West 171 197 4,200  Level Minneapolis Center
09:37AM 42.4106 -96.5050 271° West 210 242 9,400 4,860 Climbing Minneapolis Center
09:38AM 42.4142 -96.6139 273° West 233 268 14,200 3,420 Climbing Minneapolis Center
09:39AM 42.4197 -96.7375 274° West 309 356 16,500 2,280 Climbing Minneapolis Center
09:40AM 42.4186 -96.8811 269° West 367 422 18,900 2,220 Climbing Minneapolis Center
09:41AM 42.2388 -97.1620 270° West  Level Estimated
09:41AM 42.3886 -97.0250 254° West 393 452 21,100  Level Minneapolis Center
09:42AM 42.3575 -97.1708 254° West 401 461 22,500 1,260 Climbing Minneapolis Center
09:43AM 42.3239 -97.3242 254° West 419 482 23,700 1,260 Climbing Minneapolis Center
09:44AM 42.2892 -97.4833 254° West 436 502 25,100 1,260 Climbing Minneapolis Center
09:45AM 42.2539 -97.6481 254° West 452 520 26,300 1,260 Climbing Minneapolis Center
09:46AM 42.2117 -97.8369 253° West 461 531 27,800 1,320 Climbing Minneapolis Center
09:47AM 42.1744 -98.0036 253° West 465 535 29,100 1,260 Climbing Minneapolis Center
09:48AM 42.1372 -98.1725 253° West 470 541 30,400 1,260 Climbing Minneapolis Center
09:49AM 42.0981 -98.3469 253° West 484 557 31,700 1,260 Climbing Minneapolis Center
09:50AM 42.0569 -98.5231 253° West 491 565 33,000 1,200 Climbing Minneapolis Center
09:51AM 42.0169 -98.6983 253° West 493 567 34,200 1,320 Climbing Minneapolis Center
09:52AM 41.9689 -98.9083 253° West 493 567 35,800 1,380 Climbing Minneapolis Center
09:53AM 41.9297 -99.0800 253° West 486 559 37,100 1,260 Climbing Minneapolis Center
09:54AM 41.8892 -99.2494 252° West 481 554 38,400 1,200 Climbing Minneapolis Center
09:55AM 41.8500 -99.4172 253° West 476 548 39,600 780 Climbing Minneapolis Center
09:56AM 41.8103 -99.5839 252° West 472 543 40,000 180 Climbing Minneapolis Center
09:57AM 41.7558 -99.7542 247° West 500 575 40,000  Level Minneapolis Center
09:58AM 41.7039 -99.9233 248° West 496 571 40,000  Level Minneapolis Center
09:59AM 41.6389 -100.1283 247° West 498 573 40,000  Level Minneapolis Center
10:00AM 41.5842 -100.2997 247° West 501 577 40,000  Level Minneapolis Center
10:02AM 41.5039 -100.5472 247° West 500 575 40,000  Level Denver Center
10:03AM 41.4508 -100.7089 246° West 500 575 40,000  Level Denver Center
10:04AM 41.3897 -100.8978 247° West 500 575 40,000  Level Denver Center
10:05AM 41.3369 -101.0617 247° West 505 581 40,000  Level Denver Center
10:06AM 41.2822 -101.2233 246° West 504 580 40,000  Level Denver Center
10:07AM 41.2203 -101.4125 247° West 503 579 40,000  Level Denver Center
10:08AM 41.1667 -101.5742 246° West 503 579 40,000  Level Denver Center
10:09AM 41.1039 -101.7608 246° West 498 573 40,000  Level Denver Center
10:10AM 41.0506 -101.9208 246° West 499 574 40,000  Level Denver Center
10:11AM 40.9947 -102.0808 245° Southwest 501 577 40,000  Level Denver Center
10:12AM 40.9303 -102.2678 246° West 501 577 40,000  Level Denver Center
10:13AM 40.8764 -102.4267 246° West 498 573 40,000  Level Denver Center
10:14AM 40.8119 -102.6122 245° Southwest 498 573 40,000  Level Denver Center
10:15AM 40.7569 -102.7717 246° West 500 575 40,000  Level Denver Center
10:16AM 40.7106 -102.9050 245° Southwest 502 578 40,000  Level Denver Center
10:17AM 40.6364 -103.1178 245° Southwest 502 578 40,000 -180 Level Denver Center
10:18AM 40.5878 -103.2500 244° Southwest 503 579 39,700 -1,320 Descending Denver Center
10:19AM 40.5172 -103.4503 245° Southwest 506 582 37,400 -1,920 Descending Denver Center
10:20AM 40.4550 -103.6233 245° Southwest 522 601 35,500 -1,920 Descending Denver Center
10:21AM 40.3811 -103.8264 245° Southwest 517 595 33,200 -1,740 Descending Denver Center
10:22AM 40.3058 -104.0336 245° Southwest 524 603 32,000 -600 Descending Denver Center
10:23AM 40.2403 -104.2128 244° Southwest 540 621 32,000  Level Denver Center
10:24AM 40.1733 -104.3939 244° Southwest 552 635 32,000 -420 Level Denver Center
10:25AM 40.1069 -104.5739 244° Southwest 554 638 31,200 -1,080 Descending Denver Center
10:26AM 40.0514 -104.7536 248° West 543 625 29,900 -1,320 Descending Denver Center
10:27AM 40.0328 -104.9303 262° West 504 580 28,600 -960 Descending Denver Center
10:29AM 40.0294 -105.1383 269° West 485 558 28,000 -300 Descending Denver Center
10:30AM 40.0264 -105.2781 268° West 484 557 28,000 -60 Level Denver Center
10:31AM 40.0228 -105.4878 269° West 485 558 27,900 -1,140 Descending Denver Center
10:32AM 40.0203 -105.6583 269° West 478 550 25,700 -2,220 Descending Denver Center
10:33AM 40.0158 -105.8200 268° West 455 524 23,400 -2,280 Descending Denver Center
10:34AM 40.0136 -105.9750 269° West 431 496 21,100 -2,520 Descending Denver Center
10:35AM 40.0083 -106.1422 268° West 384 442 18,300 -2,640 Descending Denver Center
10:36AM 40.0081 -106.2436 270° West 360 414 15,700 -2,100 Descending Denver Center
10:37AM 40.0053 -106.3806 269° West 336 387 14,000 -840 Descending Denver Center
10:38AM 39.9750 -106.4550 242° Southwest 288 331 14,000  Level Denver Center
10:39AM 39.8942 -106.4878 197° South 295 339 14,000  Level Denver Center
10:40AM 39.8119 -106.5214 197° South 303 349 14,000 -120 Level Denver Center
10:41AM 39.7286 -106.5561 198° South 309 356 13,800 -960 Descending Denver Center
10:42AM 39.6850 -106.6283 232° Southwest 286 329 12,100 -1,680 Descending Denver Center
10:43AM 39.6733 -106.7114 260° West 255 293 10,400 -1,500 Descending Denver Center
10:44AM 39.6622 -106.7817 258° West 198 228 9,000 -1,260 Descending Denver Center
10:45AM 39.6536 -106.8339 258° West 161 185 7,800 -1,020 Descending Denver Center
10:46AM 39.6456 -106.8842 258° West 149 171 7,000 -420 Descending Denver Center
10:47AM 39.6400 -106.9319 261° West 146 168 7,000  Level Denver Center